createdAt,value
2023-05-09T00:00:49.696Z,9.70
2023-05-09T00:03:16.061Z,7.88
2023-05-09T00:05:42.443Z,7.88
2023-05-09T00:08:09.043Z,9.18
2023-05-09T00:10:35.363Z,10.68
2023-05-09T00:13:01.797Z,9.55
2023-05-09T00:15:28.291Z,8.30
2023-05-09T00:17:54.735Z,7.15
2023-05-09T00:20:21.688Z,8.40
2023-05-09T00:22:48.064Z,7.40
2023-05-09T00:25:14.598Z,7.63
2023-05-09T00:27:41.160Z,8.23
2023-05-09T00:30:08.183Z,7.78
2023-05-09T00:32:34.666Z,9.52
2023-05-09T00:35:01.016Z,10.65
2023-05-09T00:37:29.074Z,9.65
2023-05-09T00:39:55.383Z,7.45
2023-05-09T00:42:21.689Z,10.07
2023-05-09T00:44:48.014Z,10.82
2023-05-09T00:47:14.406Z,11.85
2023-05-09T00:49:40.730Z,8.65
2023-05-09T00:52:07.038Z,9.10
2023-05-09T00:54:33.403Z,7.75
2023-05-09T00:56:59.732Z,9.38
2023-05-09T00:59:27.760Z,8.00
2023-05-09T01:01:54.116Z,6.72
2023-05-09T01:04:20.531Z,11.80
2023-05-09T01:07:30.153Z,11.35
2023-05-09T01:10:07.709Z,8.15
2023-05-09T01:12:58.772Z,8.55
2023-05-09T01:15:50.455Z,7.38
2023-05-09T01:18:30.192Z,7.20
2023-05-09T01:21:08.398Z,6.97
2023-05-09T01:24:13.521Z,8.85
2023-05-09T01:26:55.972Z,9.90
2023-05-09T01:29:45.468Z,7.93
2023-05-09T01:32:17.274Z,6.60
2023-05-09T01:34:45.492Z,7.18
2023-05-09T01:37:14.785Z,10.98
2023-05-09T01:39:44.780Z,10.77
2023-05-09T01:42:12.903Z,9.10
2023-05-09T01:44:41.164Z,6.75
2023-05-09T01:47:08.533Z,5.78
2023-05-09T01:49:40.192Z,6.75
2023-05-09T01:52:09.977Z,7.95
2023-05-09T01:54:37.774Z,9.45
2023-05-09T01:57:06.259Z,7.20
2023-05-09T01:59:33.887Z,6.15
2023-05-09T02:02:02.692Z,7.05
2023-05-09T02:04:30.872Z,5.38
2023-05-09T02:06:58.965Z,6.90
2023-05-09T02:09:25.837Z,6.30
2023-05-09T02:11:52.243Z,7.80
2023-05-09T02:14:18.542Z,8.10
2023-05-09T02:16:44.925Z,6.82
2023-05-09T02:19:11.396Z,8.13
2023-05-09T02:21:37.874Z,7.70
2023-05-09T02:24:04.583Z,6.80
2023-05-09T02:26:31.378Z,7.32
2023-05-09T02:28:58.829Z,5.50
2023-05-09T02:31:27.357Z,5.47
2023-05-09T02:33:54.714Z,8.38
2023-05-09T02:36:22.575Z,6.35
2023-05-09T02:38:49.028Z,10.15
2023-05-09T02:41:16.084Z,7.22
2023-05-09T02:43:42.936Z,9.40
2023-05-09T02:46:10.386Z,5.50
2023-05-09T02:48:36.895Z,7.95
2023-05-09T02:51:03.389Z,5.88
2023-05-09T02:53:29.758Z,7.47
2023-05-09T02:55:56.068Z,6.38
2023-05-09T02:58:22.380Z,4.70
2023-05-09T03:00:48.712Z,7.95
2023-05-09T03:03:15.191Z,4.82
2023-05-09T03:05:41.565Z,7.13
2023-05-09T03:08:07.912Z,4.72
2023-05-09T03:10:34.531Z,4.95
2023-05-09T03:13:01.271Z,6.78
2023-05-09T03:15:27.678Z,6.40
2023-05-09T03:17:54.081Z,6.35
2023-05-09T03:20:20.487Z,8.07
2023-05-09T03:22:46.807Z,6.78
2023-05-09T03:25:13.410Z,8.57
2023-05-09T03:27:39.901Z,14.27
2023-05-09T03:30:06.953Z,6.60
2023-05-09T03:32:33.396Z,6.65
2023-05-09T03:34:59.713Z,6.43
2023-05-09T03:37:27.224Z,6.43
2023-05-09T03:39:53.749Z,8.25
2023-05-09T03:42:20.045Z,5.30
2023-05-09T03:44:46.370Z,7.43
2023-05-09T03:47:12.694Z,9.85
2023-05-09T03:49:39.008Z,5.93
2023-05-09T03:52:05.505Z,5.18
2023-05-09T03:54:31.792Z,6.53
2023-05-09T03:56:58.093Z,4.95
2023-05-09T03:59:24.422Z,7.15
2023-05-09T04:01:50.854Z,10.40
2023-05-09T04:04:17.249Z,4.80
2023-05-09T04:06:43.564Z,4.78
2023-05-09T04:09:09.935Z,6.20
2023-05-09T04:11:36.264Z,6.60
2023-05-09T04:14:02.604Z,5.63
2023-05-09T04:16:30.125Z,5.80
2023-05-09T04:18:56.452Z,3.65
2023-05-09T04:21:22.775Z,4.82
2023-05-09T04:23:49.083Z,7.78
2023-05-09T04:26:15.403Z,6.70
2023-05-09T04:28:41.692Z,5.53
2023-05-09T04:31:08.096Z,6.70
2023-05-09T04:33:34.542Z,5.85
2023-05-09T04:36:00.907Z,5.28
2023-05-09T04:38:27.698Z,3.50
2023-05-09T04:40:54.056Z,4.63
2023-05-09T04:43:20.372Z,5.35
2023-05-09T04:45:46.803Z,3.83
2023-05-09T04:48:13.124Z,6.82
2023-05-09T04:50:40.953Z,9.27
2023-05-09T04:53:07.272Z,5.63
2023-05-09T04:55:33.607Z,5.88
2023-05-09T04:57:59.949Z,4.53
2023-05-09T05:00:26.248Z,5.53
2023-05-09T05:02:52.583Z,5.95
2023-05-09T05:05:24.528Z,4.13
2023-05-09T05:07:51.895Z,6.90
2023-05-09T05:10:18.240Z,6.35
2023-05-09T05:12:44.567Z,7.82
2023-05-09T05:15:11.576Z,4.53
2023-05-09T05:17:37.998Z,7.00
2023-05-09T05:20:04.827Z,13.52
2023-05-09T05:22:32.761Z,11.52
2023-05-09T05:24:59.213Z,6.15
2023-05-09T05:27:25.524Z,5.53
2023-05-09T05:29:51.828Z,6.50
2023-05-09T05:32:18.226Z,9.07
2023-05-09T05:34:44.532Z,7.40
2023-05-09T05:37:10.871Z,5.88
2023-05-09T05:39:37.162Z,6.63
2023-05-09T05:42:03.515Z,6.22
2023-05-09T05:44:29.840Z,8.65
2023-05-09T05:46:56.263Z,4.95
2023-05-09T05:49:22.587Z,5.72
2023-05-09T05:51:48.898Z,6.55
2023-05-09T05:54:15.193Z,7.45
2023-05-09T05:56:41.527Z,6.18
2023-05-09T05:59:07.950Z,6.82
2023-05-09T06:01:34.340Z,4.90
2023-05-09T06:04:00.686Z,6.65
2023-05-09T06:06:27.364Z,8.40
2023-05-09T06:08:53.753Z,5.75
2023-05-09T06:11:20.082Z,5.10
2023-05-09T06:13:46.399Z,5.10
2023-05-09T06:16:19.640Z,4.88
2023-05-09T06:18:47.455Z,8.30
2023-05-09T06:21:13.810Z,6.55
2023-05-09T06:23:47.265Z,8.52
2023-05-09T06:26:23.774Z,6.45
2023-05-09T06:28:50.151Z,5.30
2023-05-09T06:31:16.559Z,6.28
2023-05-09T06:33:42.924Z,10.10
2023-05-09T06:36:09.406Z,7.65
2023-05-09T06:38:35.701Z,7.07
2023-05-09T06:41:02.017Z,7.30
2023-05-09T06:43:28.347Z,7.57
2023-05-09T06:45:54.753Z,7.60
2023-05-09T06:48:21.083Z,8.68
2023-05-09T06:50:47.693Z,8.98
2023-05-09T06:53:14.112Z,8.07
2023-05-09T06:55:40.461Z,7.28
2023-05-09T06:58:06.760Z,7.03
2023-05-09T07:00:33.098Z,6.40
2023-05-09T07:02:59.425Z,9.60
2023-05-09T07:05:25.932Z,6.95
2023-05-09T07:07:52.519Z,9.10
2023-05-09T07:10:18.895Z,7.07
2023-05-09T07:12:45.194Z,7.13
2023-05-09T07:15:11.691Z,7.18
2023-05-09T07:17:38.042Z,6.75
2023-05-09T07:20:04.916Z,7.10
2023-05-09T07:22:32.676Z,6.97
2023-05-09T07:24:59.972Z,9.07
2023-05-09T07:27:26.335Z,9.65
2023-05-09T07:29:52.698Z,13.00
2023-05-09T07:32:19.559Z,8.63
2023-05-09T07:34:45.880Z,10.43
2023-05-09T07:37:13.664Z,9.65
2023-05-09T07:39:41.717Z,10.30
2023-05-09T07:42:08.058Z,11.63
2023-05-09T07:44:34.770Z,11.05
2023-05-09T07:47:01.232Z,10.20
2023-05-09T07:49:27.540Z,8.73
2023-05-09T07:51:53.849Z,8.52
2023-05-09T07:54:20.179Z,11.98
2023-05-09T07:56:46.495Z,10.77
2023-05-09T07:59:12.825Z,8.85
2023-05-09T08:01:39.228Z,14.15
2023-05-09T08:04:05.654Z,9.80
2023-05-09T08:06:32.705Z,9.05
2023-05-09T08:08:59.005Z,9.88
2023-05-09T08:11:25.334Z,10.30
2023-05-09T08:13:51.976Z,9.90
2023-05-09T08:16:18.277Z,12.95
2023-05-09T08:18:44.994Z,11.23
2023-05-09T08:21:11.705Z,11.05
2023-05-09T08:23:38.026Z,11.90
2023-05-09T08:26:04.376Z,10.13
2023-05-09T08:28:30.669Z,13.45
2023-05-09T08:30:57.092Z,13.70
2023-05-09T08:33:23.991Z,10.98
2023-05-09T08:35:51.583Z,10.85
2023-05-09T08:38:17.889Z,11.77
2023-05-09T08:40:44.245Z,11.02
2023-05-09T08:43:11.793Z,9.52
2023-05-09T08:45:51.723Z,12.15
2023-05-09T08:48:19.107Z,12.75
2023-05-09T08:50:45.515Z,11.43
2023-05-09T08:53:12.008Z,9.18
2023-05-09T08:55:38.749Z,11.05
2023-05-09T08:58:05.680Z,12.05
2023-05-09T09:00:33.554Z,10.90
2023-05-09T09:03:01.850Z,9.70
2023-05-09T09:08:01.698Z,9.23
2023-05-09T09:10:31.710Z,10.45
2023-05-09T09:12:59.520Z,10.75
2023-05-09T09:15:29.724Z,12.27
2023-05-09T09:18:01.087Z,14.88
2023-05-09T09:20:31.299Z,12.38
2023-05-09T09:22:59.867Z,14.05
2023-05-09T09:25:26.251Z,11.07
2023-05-09T09:27:52.557Z,13.82
2023-05-09T09:30:19.050Z,17.70
2023-05-09T09:32:45.395Z,16.15
2023-05-09T09:35:12.106Z,14.10
2023-05-09T09:37:40.565Z,12.82
2023-05-09T09:40:08.738Z,14.38
2023-05-09T09:42:48.490Z,11.45
2023-05-09T09:45:19.769Z,13.45
2023-05-09T09:47:48.320Z,13.40
2023-05-09T09:50:17.151Z,12.10
2023-05-09T09:52:54.659Z,11.23
2023-05-09T09:55:22.742Z,10.50
2023-05-09T09:57:49.037Z,14.90
2023-05-09T10:00:17.648Z,13.82
2023-05-09T10:03:02.418Z,13.02
2023-05-09T10:05:30.571Z,11.23
2023-05-09T10:07:58.941Z,10.57
2023-05-09T10:10:27.795Z,10.40
2023-05-09T10:12:58.968Z,14.70
2023-05-09T10:15:30.041Z,14.38
2023-05-09T10:18:00.904Z,13.55
2023-05-09T10:20:28.496Z,11.48
2023-05-09T10:22:58.687Z,11.35
2023-05-09T10:25:46.762Z,11.75
2023-05-09T10:28:22.450Z,15.13
2023-05-09T10:31:14.757Z,12.40
2023-05-09T10:33:48.919Z,12.68
2023-05-09T10:36:17.733Z,12.15
2023-05-09T10:38:44.988Z,10.68
2023-05-09T10:41:11.645Z,11.45
2023-05-09T10:43:38.167Z,13.82
2023-05-09T10:46:05.384Z,9.68
2023-05-09T10:48:33.174Z,12.80
2023-05-09T10:51:03.959Z,9.90
2023-05-09T10:53:49.910Z,12.05
2023-05-09T10:56:33.681Z,10.82
2023-05-09T10:59:00.417Z,9.75
2023-05-09T11:01:38.082Z,9.15
2023-05-09T11:04:16.409Z,10.15
2023-05-09T11:06:42.695Z,11.75
2023-05-09T11:09:28.635Z,9.35
2023-05-09T11:12:05.472Z,9.80
2023-05-09T11:14:37.529Z,10.20
2023-05-09T11:17:11.928Z,12.02
2023-05-09T11:19:47.302Z,35.83
2023-05-09T11:22:18.651Z,8.85
2023-05-09T11:24:46.049Z,12.20
2023-05-09T11:27:23.127Z,7.93
2023-05-09T11:29:57.473Z,10.48
2023-05-09T11:32:40.761Z,9.20
2023-05-09T11:35:09.104Z,10.02
2023-05-09T11:38:04.832Z,12.35
2023-05-09T11:40:32.269Z,9.63
2023-05-09T11:42:59.866Z,11.23
2023-05-09T11:45:28.933Z,11.27
2023-05-09T11:47:55.562Z,8.32
2023-05-09T11:50:21.884Z,12.32
2023-05-09T11:52:49.643Z,12.68
2023-05-09T11:55:18.340Z,9.88
2023-05-09T11:57:47.215Z,9.68
2023-05-09T12:00:23.187Z,8.10
2023-05-09T12:02:50.269Z,12.23
2023-05-09T12:05:18.258Z,8.45
2023-05-09T12:07:45.464Z,9.52
2023-05-09T12:10:14.373Z,7.88
2023-05-09T12:12:49.317Z,8.80
2023-05-09T12:15:17.024Z,8.43
2023-05-09T12:17:45.027Z,9.85
2023-05-09T12:20:11.868Z,9.18
2023-05-09T12:22:38.683Z,7.53
2023-05-09T12:25:09.683Z,6.22
2023-05-09T12:27:37.770Z,6.97
2023-05-09T12:30:08.351Z,7.38
2023-05-09T12:32:35.476Z,7.75
2023-05-09T12:35:02.206Z,5.55
2023-05-09T12:37:31.073Z,5.85
2023-05-09T12:40:10.040Z,7.00
2023-05-09T12:42:36.533Z,5.70
2023-05-09T12:45:03.637Z,5.60
2023-05-09T12:47:31.144Z,6.80
2023-05-09T12:49:59.019Z,5.97
2023-05-09T12:52:25.989Z,7.43
2023-05-09T12:54:53.494Z,5.88
2023-05-09T12:57:25.133Z,7.78
2023-05-09T12:59:51.471Z,7.00
2023-05-09T13:02:17.820Z,6.82
2023-05-09T13:04:44.177Z,6.70
2023-05-09T13:07:10.743Z,8.80
2023-05-09T13:09:54.875Z,6.80
2023-05-09T13:12:21.224Z,7.60
2023-05-09T13:14:47.608Z,6.63
2023-05-09T13:17:14.016Z,6.43
2023-05-09T13:19:40.348Z,7.22
2023-05-09T13:22:06.690Z,5.75
2023-05-09T13:24:33.016Z,8.90
2023-05-09T13:26:59.343Z,7.60
2023-05-09T13:29:25.697Z,8.65
2023-05-09T13:31:52.005Z,6.70
2023-05-09T13:34:18.344Z,6.68
2023-05-09T13:36:44.652Z,7.13
2023-05-09T13:39:10.974Z,5.43
2023-05-09T13:41:38.191Z,7.93
2023-05-09T13:44:04.760Z,11.25
2023-05-09T13:46:31.130Z,5.97
2023-05-09T13:48:57.440Z,6.20
2023-05-09T13:51:23.749Z,5.43
2023-05-09T13:53:50.045Z,9.18
2023-05-09T13:56:16.386Z,6.10
2023-05-09T13:58:42.686Z,6.75
2023-05-09T14:01:09.121Z,6.13
2023-05-09T14:03:35.499Z,6.38
2023-05-09T14:06:01.939Z,7.78
2023-05-09T14:08:28.256Z,7.13
2023-05-09T14:10:54.571Z,7.45
2023-05-09T14:13:20.936Z,7.65
2023-05-09T14:15:47.413Z,8.27
2023-05-09T14:18:17.731Z,8.45
2023-05-09T14:20:45.602Z,4.72
2023-05-09T14:23:11.912Z,5.25
2023-05-09T14:25:38.196Z,5.63
2023-05-09T14:28:04.880Z,5.40
2023-05-09T14:30:31.204Z,7.72
2023-05-09T14:32:57.551Z,5.78
2023-05-09T14:35:23.964Z,7.13
2023-05-09T14:37:50.323Z,6.40
2023-05-09T14:40:16.904Z,5.80
2023-05-09T14:42:43.415Z,7.10
2023-05-09T14:45:09.964Z,6.32
2023-05-09T14:47:36.265Z,5.15
2023-05-09T14:50:02.686Z,8.07
2023-05-09T14:52:28.979Z,7.22
2023-05-09T14:54:55.570Z,5.70
2023-05-09T14:57:21.881Z,6.95
2023-05-09T14:59:48.176Z,6.63
2023-05-09T15:02:14.487Z,6.97
2023-05-09T15:04:40.817Z,7.05
2023-05-09T15:07:07.110Z,7.13
2023-05-09T15:09:33.438Z,7.65
2023-05-09T15:11:59.761Z,7.82
2023-05-09T15:14:26.112Z,7.50
2023-05-09T15:16:52.504Z,7.43
2023-05-09T15:19:19.153Z,8.05
2023-05-09T15:21:45.560Z,8.38
2023-05-09T15:24:11.854Z,6.95
2023-05-09T15:26:38.308Z,7.07
2023-05-09T15:29:04.597Z,9.95
2023-05-09T15:31:32.792Z,7.35
2023-05-09T15:33:59.663Z,7.50
2023-05-09T15:36:27.854Z,7.00
2023-05-09T15:38:54.131Z,8.82
2023-05-09T15:41:20.466Z,8.68
2023-05-09T15:43:46.760Z,8.50
2023-05-09T15:46:13.118Z,7.80
2023-05-09T15:48:39.422Z,7.45
2023-05-09T15:51:05.832Z,10.50
2023-05-09T15:53:32.140Z,11.00
2023-05-09T15:55:58.453Z,8.57
2023-05-09T15:58:24.944Z,9.88
2023-05-09T16:00:51.378Z,6.47
2023-05-09T16:03:18.335Z,10.30
2023-05-09T16:05:44.937Z,7.55
2023-05-09T16:08:11.244Z,7.53
2023-05-09T16:10:37.640Z,8.40
2023-05-09T16:13:04.000Z,5.72
2023-05-09T16:15:30.419Z,6.88
2023-05-09T16:17:56.745Z,7.53
2023-05-09T16:20:23.168Z,7.53
2023-05-09T16:22:49.491Z,8.75
2023-05-09T16:25:16.527Z,6.00
2023-05-09T16:27:42.893Z,8.55
2023-05-09T16:30:09.691Z,7.00
2023-05-09T16:32:36.006Z,6.68
2023-05-09T16:35:02.307Z,6.68
2023-05-09T16:37:28.611Z,6.18
2023-05-09T16:39:55.143Z,6.95
2023-05-09T16:42:21.462Z,6.75
2023-05-09T16:44:47.945Z,7.97
2023-05-09T16:47:14.322Z,6.70
2023-05-09T16:49:40.617Z,7.25
2023-05-09T16:52:06.984Z,6.82
2023-05-09T16:54:33.276Z,6.57
2023-05-09T16:56:59.594Z,5.93
2023-05-09T16:59:25.949Z,8.27
2023-05-09T17:01:52.248Z,8.90
2023-05-09T17:04:18.561Z,7.75
2023-05-09T17:06:44.958Z,8.25
2023-05-09T17:09:11.255Z,7.65
2023-05-09T17:11:37.542Z,7.65
2023-05-09T17:14:03.848Z,8.77
2023-05-09T17:16:30.195Z,9.10
2023-05-09T17:18:56.518Z,10.52
2023-05-09T17:21:22.809Z,9.02
2023-05-09T17:23:49.198Z,9.60
2023-05-09T17:26:15.500Z,8.30
2023-05-09T17:28:41.828Z,9.48
2023-05-09T17:31:08.125Z,7.95
2023-05-09T17:33:34.480Z,9.25
2023-05-09T17:36:00.857Z,8.25
2023-05-09T17:38:27.163Z,7.30
2023-05-09T17:40:53.485Z,8.25
2023-05-09T17:43:19.804Z,7.70
2023-05-09T17:45:46.157Z,11.43
2023-05-09T17:48:12.474Z,7.80
2023-05-09T17:50:38.822Z,8.10
2023-05-09T17:53:05.129Z,9.75
2023-05-09T17:55:31.431Z,8.18
2023-05-09T17:57:57.726Z,8.70
2023-05-09T18:00:24.089Z,10.52
2023-05-09T18:02:50.444Z,9.63
2023-05-09T18:05:16.850Z,9.98
2023-05-09T18:07:43.139Z,7.93
2023-05-09T18:10:09.961Z,10.13
2023-05-09T18:12:37.173Z,10.07
2023-05-09T18:15:04.144Z,10.27
2023-05-09T18:17:30.462Z,9.93
2023-05-09T18:19:56.807Z,10.48
2023-05-09T18:22:23.135Z,12.98
2023-05-09T18:24:49.538Z,13.77
2023-05-09T18:27:16.518Z,10.35
2023-05-09T18:29:42.799Z,10.65
2023-05-09T18:32:09.103Z,11.73
2023-05-09T18:34:35.404Z,11.85
2023-05-09T18:37:01.697Z,10.38
2023-05-09T18:39:27.994Z,14.05
2023-05-09T18:41:54.337Z,12.90
2023-05-09T18:44:20.639Z,13.05
2023-05-09T18:46:47.025Z,14.30
2023-05-09T18:49:13.355Z,12.52
2023-05-09T18:51:39.706Z,14.15
2023-05-09T18:54:06.025Z,16.30
2023-05-09T18:56:32.379Z,12.30
2023-05-09T18:58:58.658Z,11.77
2023-05-09T19:01:25.050Z,12.93
2023-05-09T19:03:51.642Z,14.00
2023-05-09T19:06:17.959Z,14.10
2023-05-09T19:08:44.336Z,11.25
2023-05-09T19:11:10.653Z,14.75
2023-05-09T19:13:38.118Z,12.75
2023-05-09T19:16:05.532Z,12.40
2023-05-09T19:18:31.876Z,11.77
2023-05-09T19:20:58.810Z,11.80
2023-05-09T19:23:25.935Z,15.02
2023-05-09T19:25:52.960Z,13.57
2023-05-09T19:28:20.282Z,10.95
2023-05-09T19:30:46.733Z,15.65
2023-05-09T19:33:13.065Z,9.55
2023-05-09T19:35:41.265Z,13.65
2023-05-09T19:38:07.733Z,11.30
2023-05-09T19:40:34.372Z,10.13
2023-05-09T19:43:00.661Z,8.90
2023-05-09T19:45:26.973Z,9.38
2023-05-09T19:47:53.320Z,7.90
2023-05-09T19:50:19.764Z,9.40
2023-05-09T19:52:46.273Z,8.75
2023-05-09T19:55:12.784Z,9.57
2023-05-09T19:57:39.623Z,9.00
2023-05-09T20:00:08.525Z,8.90
2023-05-09T20:02:34.967Z,10.10
2023-05-09T20:05:01.339Z,11.38
2023-05-09T20:07:27.795Z,12.30
2023-05-09T20:09:54.112Z,8.95
2023-05-09T20:12:20.415Z,10.90
2023-05-09T20:14:46.736Z,9.52
2023-05-09T20:17:13.032Z,9.48
2023-05-09T20:19:39.410Z,8.73
2023-05-09T20:22:05.727Z,8.40
2023-05-09T20:24:32.064Z,10.30
2023-05-09T20:26:58.473Z,9.32
2023-05-09T20:29:25.407Z,10.13
2023-05-09T20:31:51.775Z,9.90
2023-05-09T20:34:18.110Z,7.85
2023-05-09T20:36:47.307Z,8.65
2023-05-09T20:39:13.612Z,9.05
2023-05-09T20:41:39.926Z,10.55
2023-05-09T20:44:06.238Z,10.88
2023-05-09T20:46:32.706Z,11.93
2023-05-09T20:48:59.004Z,9.20
2023-05-09T20:51:25.368Z,10.13
2023-05-09T20:53:51.681Z,10.23
2023-05-09T20:56:18.000Z,12.05
2023-05-09T20:58:44.318Z,11.02
2023-05-09T21:01:10.659Z,11.35
2023-05-09T21:03:37.003Z,8.95
2023-05-09T21:06:03.542Z,8.98
2023-05-09T21:08:29.867Z,9.10
2023-05-09T21:10:56.178Z,9.75
2023-05-09T21:13:22.701Z,8.55
2023-05-09T21:15:49.711Z,10.70
2023-05-09T21:18:16.486Z,7.68
2023-05-09T21:20:42.797Z,8.82
2023-05-09T21:23:09.120Z,8.05
2023-05-09T21:25:35.421Z,8.52
2023-05-09T21:28:01.762Z,8.18
2023-05-09T21:30:28.116Z,7.05
2023-05-09T21:32:54.490Z,7.90
2023-05-09T21:35:20.905Z,9.27
2023-05-09T21:37:47.202Z,7.63
2023-05-09T21:40:13.876Z,8.15
2023-05-09T21:42:40.410Z,6.70
2023-05-09T21:45:09.503Z,7.85
2023-05-09T21:47:36.593Z,8.43
2023-05-09T21:50:03.133Z,7.43
2023-05-09T21:52:29.933Z,9.35
2023-05-09T21:54:56.238Z,7.53
2023-05-09T21:57:22.560Z,8.02
2023-05-09T21:59:48.857Z,8.43
2023-05-09T22:02:15.353Z,7.25
2023-05-09T22:04:41.723Z,7.53
2023-05-09T22:07:08.050Z,9.10
2023-05-09T22:09:34.717Z,9.45
2023-05-09T22:12:01.077Z,9.15
2023-05-09T22:14:27.384Z,9.07
2023-05-09T22:16:53.684Z,8.00
2023-05-09T22:19:20.037Z,7.82
2023-05-09T22:21:46.424Z,8.25
2023-05-09T22:24:12.752Z,8.23
2023-05-09T22:26:39.062Z,7.30
2023-05-09T22:29:05.379Z,8.00
2023-05-09T22:31:31.734Z,8.10
2023-05-09T22:33:58.050Z,8.52
2023-05-09T22:36:24.828Z,9.55
2023-05-09T22:38:51.132Z,9.55
2023-05-09T22:41:17.452Z,8.88
2023-05-09T22:43:43.752Z,8.85
2023-05-09T22:46:10.112Z,9.20
2023-05-09T22:48:36.448Z,7.25
2023-05-09T22:51:02.826Z,8.65
2023-05-09T22:53:29.134Z,8.60
2023-05-09T22:55:55.438Z,8.65
2023-05-09T22:58:21.822Z,7.97
2023-05-09T23:00:48.136Z,8.98
2023-05-09T23:03:14.524Z,9.82
2023-05-09T23:05:40.942Z,8.82
2023-05-09T23:08:07.293Z,9.35
2023-05-09T23:10:33.593Z,7.97
2023-05-09T23:12:59.990Z,9.95
2023-05-09T23:15:26.482Z,9.60
2023-05-09T23:17:52.904Z,10.63
2023-05-09T23:20:19.595Z,8.23
2023-05-09T23:22:45.956Z,10.68
2023-05-09T23:25:12.272Z,10.98
2023-05-09T23:27:38.644Z,10.80
2023-05-09T23:30:05.574Z,9.68
2023-05-09T23:32:31.889Z,11.07
2023-05-09T23:34:58.224Z,13.02
2023-05-09T23:37:24.509Z,10.45
2023-05-09T23:39:50.804Z,11.85
2023-05-09T23:42:17.101Z,10.90
2023-05-09T23:44:43.405Z,12.00
2023-05-09T23:47:09.697Z,12.20
2023-05-09T23:49:35.997Z,12.27
2023-05-09T23:52:02.340Z,13.07
2023-05-09T23:54:28.708Z,11.70
2023-05-09T23:56:55.012Z,12.18
2023-05-09T23:59:21.308Z,12.85
